sensor_id;sensor_type;location;lat;lon;timestamp;pressure;altitude;pressure_sealevel;temperature;humidity
44359;BME280;30077;52.474;13.326;2022-09-03T00:00:59;101278.88;;;13.63;69.37
44359;BME280;30077;52.474;13.326;2022-09-03T00:06:09;101281.19;;;13.52;69.84
44359;BME280;30077;52.474;13.326;2022-09-03T00:11:21;101268.78;;;13.49;69.85
44359;BME280;30077;52.474;13.326;2022-09-03T00:16:27;101272.63;;;13.43;69.90
44359;BME280;30077;52.474;13.326;2022-09-03T00:21:43;101268.31;;;13.41;70.61
44359;BME280;30077;52.474;13.326;2022-09-03T00:26:49;101266.75;;;13.35;71.09
44359;BME280;30077;52.474;13.326;2022-09-03T00:31:57;101274.16;;;13.30;70.75
44359;BME280;30077;52.474;13.326;2022-09-03T00:36:58;101272.56;;;13.26;71.83
44359;BME280;30077;52.474;13.326;2022-09-03T00:47:47;101272.66;;;13.23;71.72
44359;BME280;30077;52.474;13.326;2022-09-03T00:53:22;101259.31;;;13.21;72.25
44359;BME280;30077;52.474;13.326;2022-09-03T00:58:39;101264.13;;;13.15;72.43
44359;BME280;30077;52.474;13.326;2022-09-03T01:03:55;101255.56;;;13.07;72.72
44359;BME280;30077;52.474;13.326;2022-09-03T01:20:01;101256.13;;;12.94;72.80
44359;BME280;30077;52.474;13.326;2022-09-03T01:26:09;101257.84;;;12.95;72.94
44359;BME280;30077;52.474;13.326;2022-09-03T01:36:27;101247.44;;;12.89;73.08
44359;BME280;30077;52.474;13.326;2022-09-03T01:41:49;101243.94;;;12.87;73.70
44359;BME280;30077;52.474;13.326;2022-09-03T01:47:24;101243.22;;;12.84;73.24
44359;BME280;30077;52.474;13.326;2022-09-03T01:52:42;101247.75;;;12.82;73.46
44359;BME280;30077;52.474;13.326;2022-09-03T01:57:48;101237.41;;;12.74;73.62
44359;BME280;30077;52.474;13.326;2022-09-03T02:02:51;101242.75;;;12.74;73.55
44359;BME280;30077;52.474;13.326;2022-09-03T02:08:04;101248.28;;;12.71;73.72
44359;BME280;30077;52.474;13.326;2022-09-03T02:13:08;101249.63;;;12.61;74.67
44359;BME280;30077;52.474;13.326;2022-09-03T02:18:14;101239.91;;;12.58;74.64
44359;BME280;30077;52.474;13.326;2022-09-03T02:23:16;101240.13;;;12.53;74.86
44359;BME280;30077;52.474;13.326;2022-09-03T02:28:16;101247.31;;;12.51;75.04
44359;BME280;30077;52.474;13.326;2022-09-03T02:33:17;101242.91;;;12.50;75.87
44359;BME280;30077;52.474;13.326;2022-09-03T02:38:21;101257.50;;;12.43;75.20
44359;BME280;30077;52.474;13.326;2022-09-03T02:43:38;101249.72;;;12.37;75.14
44359;BME280;30077;52.474;13.326;2022-09-03T02:48:40;101249.00;;;12.34;75.48
44359;BME280;30077;52.474;13.326;2022-09-03T02:53:41;101256.41;;;12.27;76.11
44359;BME280;30077;52.474;13.326;2022-09-03T02:58:41;101257.34;;;12.26;76.45
44359;BME280;30077;52.474;13.326;2022-09-03T03:03:42;101252.00;;;12.26;76.65
44359;BME280;30077;52.474;13.326;2022-09-03T03:08:42;101243.97;;;12.26;76.22
44359;BME280;30077;52.474;13.326;2022-09-03T03:13:44;101245.25;;;12.17;76.61
44359;BME280;30077;52.474;13.326;2022-09-03T03:18:45;101241.84;;;12.14;77.24
44359;BME280;30077;52.474;13.326;2022-09-03T03:23:45;101248.38;;;12.07;77.09
44359;BME280;30077;52.474;13.326;2022-09-03T03:28:47;101254.38;;;12.12;76.23
44359;BME280;30077;52.474;13.326;2022-09-03T03:33:52;101249.31;;;12.06;76.63
44359;BME280;30077;52.474;13.326;2022-09-03T03:38:54;101255.13;;;11.95;76.68
44359;BME280;30077;52.474;13.326;2022-09-03T03:43:57;101258.91;;;11.89;77.20
44359;BME280;30077;52.474;13.326;2022-09-03T03:48:58;101273.31;;;11.85;78.18
44359;BME280;30077;52.474;13.326;2022-09-03T03:53:58;101271.44;;;11.87;78.06
44359;BME280;30077;52.474;13.326;2022-09-03T03:58:59;101265.22;;;11.87;78.25
44359;BME280;30077;52.474;13.326;2022-09-03T04:03:59;101270.41;;;11.91;77.17
44359;BME280;30077;52.474;13.326;2022-09-03T04:08:59;101264.53;;;12.03;76.80
44359;BME280;30077;52.474;13.326;2022-09-03T04:14:01;101259.19;;;12.03;76.91
44359;BME280;30077;52.474;13.326;2022-09-03T04:19:01;101256.66;;;12.00;77.25
44359;BME280;30077;52.474;13.326;2022-09-03T04:24:03;101260.38;;;11.96;77.25
44359;BME280;30077;52.474;13.326;2022-09-03T04:29:06;101258.03;;;11.89;77.71
44359;BME280;30077;52.474;13.326;2022-09-03T04:34:06;101259.09;;;11.83;78.16
44359;BME280;30077;52.474;13.326;2022-09-03T04:39:06;101257.44;;;11.80;78.11
44359;BME280;30077;52.474;13.326;2022-09-03T04:44:07;101252.44;;;11.95;78.25
44359;BME280;30077;52.474;13.326;2022-09-03T04:49:07;101251.72;;;12.12;77.95
44359;BME280;30077;52.474;13.326;2022-09-03T04:54:09;101246.53;;;12.29;76.12
44359;BME280;30077;52.474;13.326;2022-09-03T04:59:09;101257.84;;;12.36;76.07
44359;BME280;30077;52.474;13.326;2022-09-03T05:04:10;101260.91;;;12.47;75.49
44359;BME280;30077;52.474;13.326;2022-09-03T05:09:10;101265.72;;;12.59;75.89
44359;BME280;30077;52.474;13.326;2022-09-03T05:14:10;101266.41;;;12.64;75.85
44359;BME280;30077;52.474;13.326;2022-09-03T05:19:11;101261.84;;;12.66;76.74
44359;BME280;30077;52.474;13.326;2022-09-03T05:24:11;101263.91;;;12.80;75.80
44359;BME280;30077;52.474;13.326;2022-09-03T05:29:13;101280.91;;;12.79;75.82
44359;BME280;30077;52.474;13.326;2022-09-03T05:34:15;101272.34;;;13.10;75.15
44359;BME280;30077;52.474;13.326;2022-09-03T05:39:15;101262.50;;;13.11;75.54
44359;BME280;30077;52.474;13.326;2022-09-03T05:44:15;101261.59;;;13.12;75.93
44359;BME280;30077;52.474;13.326;2022-09-03T05:49:16;101266.03;;;13.32;75.68
44359;BME280;30077;52.474;13.326;2022-09-03T05:54:16;101271.75;;;13.43;75.36
44359;BME280;30077;52.474;13.326;2022-09-03T05:59:16;101271.84;;;13.41;76.34
44359;BME280;30077;52.474;13.326;2022-09-03T06:04:17;101281.63;;;13.42;76.05
44359;BME280;30077;52.474;13.326;2022-09-03T06:09:19;101274.59;;;13.59;75.99
44359;BME280;30077;52.474;13.326;2022-09-03T06:14:20;101270.34;;;13.72;74.46
44359;BME280;30077;52.474;13.326;2022-09-03T06:19:21;101270.69;;;13.66;74.88
44359;BME280;30077;52.474;13.326;2022-09-03T06:24:21;101278.13;;;13.78;75.00
44359;BME280;30077;52.474;13.326;2022-09-03T06:29:26;101282.66;;;13.95;74.22
44359;BME280;30077;52.474;13.326;2022-09-03T06:34:27;101277.09;;;14.17;73.84
44359;BME280;30077;52.474;13.326;2022-09-03T06:39:28;101279.03;;;14.50;72.13
44359;BME280;30077;52.474;13.326;2022-09-03T06:44:28;101280.38;;;14.58;71.48
44359;BME280;30077;52.474;13.326;2022-09-03T06:49:28;101291.22;;;14.57;71.57
44359;BME280;30077;52.474;13.326;2022-09-03T06:54:30;101281.53;;;14.70;71.37
44359;BME280;30077;52.474;13.326;2022-09-03T06:59:31;101289.03;;;14.81;71.32
44359;BME280;30077;52.474;13.326;2022-09-03T07:04:31;101284.47;;;14.83;70.53
44359;BME280;30077;52.474;13.326;2022-09-03T07:09:33;101284.78;;;15.10;70.04
44359;BME280;30077;52.474;13.326;2022-09-03T07:14:37;101286.47;;;15.28;69.36
44359;BME280;30077;52.474;13.326;2022-09-03T07:19:37;101284.00;;;15.57;68.58
44359;BME280;30077;52.474;13.326;2022-09-03T07:24:37;101293.56;;;15.62;68.24
44359;BME280;30077;52.474;13.326;2022-09-03T07:29:38;101299.38;;;15.86;67.43
44359;BME280;30077;52.474;13.326;2022-09-03T07:34:38;101293.31;;;15.99;67.15
44359;BME280;30077;52.474;13.326;2022-09-03T07:39:38;101292.13;;;16.34;65.56
44359;BME280;30077;52.474;13.326;2022-09-03T07:44:40;101298.38;;;16.35;65.48
44359;BME280;30077;52.474;13.326;2022-09-03T07:49:40;101299.16;;;16.67;64.89
44359;BME280;30077;52.474;13.326;2022-09-03T07:54:40;101298.06;;;16.25;66.11
44359;BME280;30077;52.474;13.326;2022-09-03T07:59:41;101296.50;;;16.51;66.04
44359;BME280;30077;52.474;13.326;2022-09-03T08:04:42;101299.53;;;17.05;64.03
44359;BME280;30077;52.474;13.326;2022-09-03T08:09:42;101301.91;;;17.10;63.83
44359;BME280;30077;52.474;13.326;2022-09-03T08:14:42;101298.84;;;17.02;63.18
44359;BME280;30077;52.474;13.326;2022-09-03T08:19:43;101295.59;;;17.25;62.33
44359;BME280;30077;52.474;13.326;2022-09-03T08:24:45;101295.16;;;17.60;60.98
44359;BME280;30077;52.474;13.326;2022-09-03T08:29:45;101292.28;;;17.77;60.57
44359;BME280;30077;52.474;13.326;2022-09-03T08:34:47;101285.63;;;17.83;60.58
44359;BME280;30077;52.474;13.326;2022-09-03T08:39:47;101285.75;;;17.10;62.43
44359;BME280;30077;52.474;13.326;2022-09-03T08:44:58;101279.41;;;17.11;62.01
44359;BME280;30077;52.474;13.326;2022-09-03T08:50:16;101277.88;;;17.21;61.43
44359;BME280;30077;52.474;13.326;2022-09-03T08:55:25;101269.56;;;17.39;60.84
44359;BME280;30077;52.474;13.326;2022-09-03T09:00:58;101274.75;;;17.42;61.86
44359;BME280;30077;52.474;13.326;2022-09-03T09:06:10;101274.19;;;17.51;61.07
44359;BME280;30077;52.474;13.326;2022-09-03T09:11:25;101272.56;;;17.34;60.83
44359;BME280;30077;52.474;13.326;2022-09-03T09:16:56;101262.06;;;17.44;60.81
44359;BME280;30077;52.474;13.326;2022-09-03T09:22:02;101262.94;;;17.71;60.49
44359;BME280;30077;52.474;13.326;2022-09-03T09:27:07;101259.88;;;18.04;58.33
44359;BME280;30077;52.474;13.326;2022-09-03T09:32:09;101262.09;;;18.12;57.10
44359;BME280;30077;52.474;13.326;2022-09-03T09:37:13;101254.28;;;18.08;57.29
44359;BME280;30077;52.474;13.326;2022-09-03T09:42:14;101240.81;;;18.20;57.90
44359;BME280;30077;52.474;13.326;2022-09-03T09:47:27;101240.66;;;18.49;56.10
44359;BME280;30077;52.474;13.326;2022-09-03T09:52:29;101229.66;;;18.52;55.14
44359;BME280;30077;52.474;13.326;2022-09-03T09:57:30;101227.72;;;18.67;53.42
44359;BME280;30077;52.474;13.326;2022-09-03T10:02:33;101236.72;;;18.93;54.04
44359;BME280;30077;52.474;13.326;2022-09-03T10:07:34;101229.34;;;18.95;52.36
44359;BME280;30077;52.474;13.326;2022-09-03T10:12:40;101225.56;;;19.10;52.12
44359;BME280;30077;52.474;13.326;2022-09-03T10:18:01;101216.47;;;19.11;51.48
44359;BME280;30077;52.474;13.326;2022-09-03T10:23:12;101214.69;;;19.36;49.05
44359;BME280;30077;52.474;13.326;2022-09-03T10:28:15;101220.44;;;19.68;47.91
44359;BME280;30077;52.474;13.326;2022-09-03T10:33:25;101212.09;;;19.34;49.42
44359;BME280;30077;52.474;13.326;2022-09-03T10:38:32;101211.97;;;20.20;47.17
44359;BME280;30077;52.474;13.326;2022-09-03T10:48:57;101214.56;;;20.33;46.71
44359;BME280;30077;52.474;13.326;2022-09-03T10:54:18;101195.91;;;20.41;45.95
44359;BME280;30077;52.474;13.326;2022-09-03T11:05:05;101185.72;;;21.24;44.38
44359;BME280;30077;52.474;13.326;2022-09-03T11:10:30;101180.31;;;21.46;43.28
44359;BME280;30077;52.474;13.326;2022-09-03T11:15:36;101170.47;;;20.89;43.10
44359;BME280;30077;52.474;13.326;2022-09-03T11:20:37;101165.38;;;21.29;42.17
44359;BME280;30077;52.474;13.326;2022-09-03T11:25:43;101161.81;;;21.29;42.54
44359;BME280;30077;52.474;13.326;2022-09-03T11:31:12;101169.22;;;21.04;42.83
44359;BME280;30077;52.474;13.326;2022-09-03T11:36:35;101155.88;;;21.12;42.62
44359;BME280;30077;52.474;13.326;2022-09-03T11:41:36;101154.16;;;21.34;42.76
44359;BME280;30077;52.474;13.326;2022-09-03T11:46:39;101147.88;;;21.11;41.89
44359;BME280;30077;52.474;13.326;2022-09-03T11:51:40;101145.50;;;21.29;41.46
44359;BME280;30077;52.474;13.326;2022-09-03T11:56:45;101146.47;;;21.50;40.37
44359;BME280;30077;52.474;13.326;2022-09-03T12:02:01;101131.09;;;21.39;39.50
44359;BME280;30077;52.474;13.326;2022-09-03T12:07:12;101134.88;;;21.80;38.90
44359;BME280;30077;52.474;13.326;2022-09-03T12:12:34;101134.91;;;22.43;37.96
44359;BME280;30077;52.474;13.326;2022-09-03T12:17:52;101137.25;;;22.78;37.23
44359;BME280;30077;52.474;13.326;2022-09-03T12:23:24;101125.38;;;23.10;37.21
44359;BME280;30077;52.474;13.326;2022-09-03T12:28:27;101114.53;;;23.49;36.65
44359;BME280;30077;52.474;13.326;2022-09-03T12:33:28;101125.81;;;22.85;36.88
44359;BME280;30077;52.474;13.326;2022-09-03T12:38:28;101127.38;;;22.87;37.39
44359;BME280;30077;52.474;13.326;2022-09-03T12:43:31;101111.03;;;22.47;37.13
44359;BME280;30077;52.474;13.326;2022-09-03T12:48:31;101099.84;;;22.40;37.95
44359;BME280;30077;52.474;13.326;2022-09-03T12:53:32;101102.38;;;22.32;37.68
44359;BME280;30077;52.474;13.326;2022-09-03T12:58:47;101100.97;;;21.96;37.67
44359;BME280;30077;52.474;13.326;2022-09-03T13:03:54;101097.91;;;21.89;38.61
44359;BME280;30077;52.474;13.326;2022-09-03T13:09:00;101092.81;;;21.96;38.49
44359;BME280;30077;52.474;13.326;2022-09-03T13:30:13;101085.06;;;21.91;38.67
44359;BME280;30077;52.474;13.326;2022-09-03T13:40:46;101088.47;;;22.25;38.86
44359;BME280;30077;52.474;13.326;2022-09-03T13:45:57;101080.53;;;22.43;37.89
44359;BME280;30077;52.474;13.326;2022-09-03T13:51:08;101079.63;;;22.64;37.32
44359;BME280;30077;52.474;13.326;2022-09-03T13:56:20;101078.38;;;22.37;37.82
44359;BME280;30077;52.474;13.326;2022-09-03T14:01:44;101069.03;;;22.09;38.18
44359;BME280;30077;52.474;13.326;2022-09-03T14:07:02;101056.44;;;22.29;38.19
44359;BME280;30077;52.474;13.326;2022-09-03T14:12:24;101060.91;;;22.30;38.11
44359;BME280;30077;52.474;13.326;2022-09-03T14:23:06;101052.53;;;22.22;37.99
44359;BME280;30077;52.474;13.326;2022-09-03T14:28:43;101048.84;;;22.23;38.11
44359;BME280;30077;52.474;13.326;2022-09-03T14:34:14;101045.72;;;22.27;38.01
44359;BME280;30077;52.474;13.326;2022-09-03T14:39:31;101046.94;;;22.44;37.39
44359;BME280;30077;52.474;13.326;2022-09-03T14:44:44;101047.75;;;22.35;38.97
44359;BME280;30077;52.474;13.326;2022-09-03T14:55:26;101040.53;;;21.41;39.38
44359;BME280;30077;52.474;13.326;2022-09-03T15:00:56;101030.13;;;21.67;39.29
44359;BME280;30077;52.474;13.326;2022-09-03T15:06:06;101017.94;;;22.24;37.83
44359;BME280;30077;52.474;13.326;2022-09-03T15:11:25;101022.47;;;22.44;37.74
44359;BME280;30077;52.474;13.326;2022-09-03T15:22:00;101027.97;;;21.81;39.05
44359;BME280;30077;52.474;13.326;2022-09-03T15:27:40;101026.97;;;21.61;39.86
44359;BME280;30077;52.474;13.326;2022-09-03T15:37:57;101028.81;;;21.40;39.97
44359;BME280;30077;52.474;13.326;2022-09-03T15:48:37;101043.59;;;20.92;40.94
44359;BME280;30077;52.474;13.326;2022-09-03T15:53:52;101033.41;;;20.62;41.40
44359;BME280;30077;52.474;13.326;2022-09-03T15:59:02;101037.88;;;20.52;41.96
44359;BME280;30077;52.474;13.326;2022-09-03T16:14:43;101029.84;;;20.51;42.43
44359;BME280;30077;52.474;13.326;2022-09-03T16:19:55;101035.75;;;20.67;41.86
44359;BME280;30077;52.474;13.326;2022-09-03T16:25:02;101028.69;;;20.87;41.67
44359;BME280;30077;52.474;13.326;2022-09-03T16:30:10;101039.69;;;20.85;41.85
44359;BME280;30077;52.474;13.326;2022-09-03T16:50:39;101042.28;;;20.42;42.78
44359;BME280;30077;52.474;13.326;2022-09-03T17:13:13;101043.25;;;20.30;43.66
44359;BME280;30077;52.474;13.326;2022-09-03T17:18:29;101045.91;;;19.96;44.96
44359;BME280;30077;52.474;13.326;2022-09-03T17:34:10;101048.09;;;19.20;47.30
44359;BME280;30077;52.474;13.326;2022-09-03T17:39:28;101046.25;;;18.97;48.31
44359;BME280;30077;52.474;13.326;2022-09-03T17:44:59;101047.84;;;18.75;48.97
44359;BME280;30077;52.474;13.326;2022-09-03T17:50:31;101062.44;;;18.60;49.75
44359;BME280;30077;52.474;13.326;2022-09-03T17:55:41;101069.69;;;18.47;50.18
44359;BME280;30077;52.474;13.326;2022-09-03T18:01:06;101068.41;;;18.40;50.80
44359;BME280;30077;52.474;13.326;2022-09-03T18:06:25;101084.50;;;18.28;51.02
44359;BME280;30077;52.474;13.326;2022-09-03T18:11:40;101072.09;;;18.13;51.85
44359;BME280;30077;52.474;13.326;2022-09-03T18:21:49;101092.81;;;18.00;52.30
44359;BME280;30077;52.474;13.326;2022-09-03T18:27:15;101093.47;;;18.03;52.62
44359;BME280;30077;52.474;13.326;2022-09-03T18:32:36;101092.38;;;18.06;52.19
44359;BME280;30077;52.474;13.326;2022-09-03T18:37:55;101100.19;;;18.23;51.09
44359;BME280;30077;52.474;13.326;2022-09-03T18:49:31;101107.84;;;18.29;50.44
44359;BME280;30077;52.474;13.326;2022-09-03T18:55:36;101100.91;;;18.25;50.06
44359;BME280;30077;52.474;13.326;2022-09-03T19:01:08;101104.59;;;18.24;50.16
44359;BME280;30077;52.474;13.326;2022-09-03T19:07:00;101109.91;;;18.13;50.24
44359;BME280;30077;52.474;13.326;2022-09-03T19:18:08;101104.06;;;17.94;50.96
44359;BME280;30077;52.474;13.326;2022-09-03T19:23:27;101106.31;;;17.87;51.02
44359;BME280;30077;52.474;13.326;2022-09-03T19:28:48;101112.22;;;17.79;51.22
44359;BME280;30077;52.474;13.326;2022-09-03T19:34:26;101108.56;;;17.80;51.16
44359;BME280;30077;52.474;13.326;2022-09-03T19:40:24;101117.63;;;17.79;51.24
44359;BME280;30077;52.474;13.326;2022-09-03T19:51:21;101120.59;;;17.75;51.32
44359;BME280;30077;52.474;13.326;2022-09-03T19:56:43;101120.25;;;17.67;51.85
44359;BME280;30077;52.474;13.326;2022-09-03T20:02:04;101128.41;;;17.79;51.25
44359;BME280;30077;52.474;13.326;2022-09-03T20:07:23;101131.66;;;17.85;51.15
44359;BME280;30077;52.474;13.326;2022-09-03T20:12:48;101141.59;;;17.84;51.30
44359;BME280;30077;52.474;13.326;2022-09-03T20:18:11;101140.63;;;17.85;50.92
44359;BME280;30077;52.474;13.326;2022-09-03T20:23:36;101141.59;;;17.84;51.16
44359;BME280;30077;52.474;13.326;2022-09-03T20:29:13;101140.00;;;17.94;50.50
44359;BME280;30077;52.474;13.326;2022-09-03T20:34:35;101143.31;;;17.85;50.70
44359;BME280;30077;52.474;13.326;2022-09-03T20:39:42;101144.81;;;17.76;51.20
44359;BME280;30077;52.474;13.326;2022-09-03T20:45:03;101142.38;;;17.72;51.58
44359;BME280;30077;52.474;13.326;2022-09-03T20:55:41;101146.41;;;17.52;52.17
44359;BME280;30077;52.474;13.326;2022-09-03T21:00:51;101155.69;;;17.48;52.11
44359;BME280;30077;52.474;13.326;2022-09-03T21:06:20;101152.22;;;17.46;52.13
44359;BME280;30077;52.474;13.326;2022-09-03T21:11:29;101163.19;;;17.43;52.31
44359;BME280;30077;52.474;13.326;2022-09-03T21:27:15;101160.34;;;17.31;52.34
44359;BME280;30077;52.474;13.326;2022-09-03T21:32:31;101155.94;;;17.16;52.96
44359;BME280;30077;52.474;13.326;2022-09-03T21:37:35;101162.31;;;17.15;52.67
44359;BME280;30077;52.474;13.326;2022-09-03T21:47:50;101185.06;;;17.11;53.11
44359;BME280;30077;52.474;13.326;2022-09-03T21:53:06;101179.00;;;17.07;53.16
44359;BME280;30077;52.474;13.326;2022-09-03T22:03:22;101183.09;;;17.13;52.82
44359;BME280;30077;52.474;13.326;2022-09-03T22:08:39;101183.53;;;17.07;53.00
44359;BME280;30077;52.474;13.326;2022-09-03T22:14:16;101186.97;;;17.09;52.80
44359;BME280;30077;52.474;13.326;2022-09-03T22:19:18;101197.75;;;17.09;52.98
44359;BME280;30077;52.474;13.326;2022-09-03T22:46:06;101209.66;;;16.62;54.51
44359;BME280;30077;52.474;13.326;2022-09-03T22:51:07;101205.03;;;16.50;54.70
44359;BME280;30077;52.474;13.326;2022-09-03T22:56:13;101207.50;;;16.39;55.15
44359;BME280;30077;52.474;13.326;2022-09-03T23:01:27;101217.00;;;16.30;55.41
44359;BME280;30077;52.474;13.326;2022-09-03T23:06:36;101218.66;;;16.32;55.46
44359;BME280;30077;52.474;13.326;2022-09-03T23:11:49;101221.69;;;16.26;55.95
44359;BME280;30077;52.474;13.326;2022-09-03T23:16:59;101224.78;;;16.20;56.02
44359;BME280;30077;52.474;13.326;2022-09-03T23:22:10;101220.72;;;16.13;56.36
44359;BME280;30077;52.474;13.326;2022-09-03T23:27:17;101225.47;;;16.08;56.62
44359;BME280;30077;52.474;13.326;2022-09-03T23:32:19;101232.41;;;16.12;56.41
44359;BME280;30077;52.474;13.326;2022-09-03T23:38:06;101230.63;;;15.97;56.91
44359;BME280;30077;52.474;13.326;2022-09-03T23:48:39;101232.13;;;15.86;57.38
44359;BME280;30077;52.474;13.326;2022-09-03T23:59:17;101243.09;;;15.68;58.38
